»·PEaware :: ASA881 KLAX-KSEA

ASA881 :: KLAX-KSEA

FLIGHT INFORMATION

Flight Status: Arrived
Operator:
Alaska Airlines
More flights by this operator :: More flights under this callsign
Pilot: Andrew C. (28419)
Aircraft: AIRBUS A319
(A319)
More flights by this aircraft type
Origin: KLAX Los Angeles Intl
United States
Destination: KSEA Seattle-Tacoma Intl
United States
More flights between these airports :: More routes between these airports
Route: LADYJ4 CSTRO SHIMR BTG HAWKZ7
File this flight plan on PilotEdge
Remarks: RMK / SIMBRIEF
Altitude:
(Current/Filed)
36,000ft
Speed:
(Current/Filed)
439kts
Departed: 22-Nov-20 01:16 PM
Arrived: 22-Nov-20 03:48 PM
Distance/Time
Traveled:
829nm/2:32
Distance/Time
To Go:
Arrived

Flight Plot

Page will automatically refresh every two minutes.

Flight plan parsing failed; only flown route is shown


Map Options




Map Legend


Flown Route
Filed Route
Departure Airport
Arrival Airport
Navaid (VOR, NDB)
Fix

Horizontal Profiles

Position Reports

Time Latitude Longitude Heading Altitude Ground
Speed
22-Nov-20 12:44 33.940070 -118.402303 39 113ft 0kts
22-Nov-20 12:45 33.940070 -118.402303 39 113ft 0kts
22-Nov-20 12:46 33.940070 -118.402303 39 113ft 0kts
22-Nov-20 12:47 33.940070 -118.402303 39 113ft 0kts
22-Nov-20 12:48 33.940070 -118.402303 39 113ft 0kts
22-Nov-20 12:49 33.940070 -118.402303 39 113ft 0kts
22-Nov-20 12:50 33.940070 -118.402303 39 113ft 0kts
22-Nov-20 12:51 33.940070 -118.402303 39 113ft 0kts
22-Nov-20 12:52 33.940070 -118.402303 39 113ft 0kts
22-Nov-20 12:53 33.940070 -118.402303 39 113ft 0kts
22-Nov-20 12:54 33.940070 -118.402303 39 113ft 0kts
22-Nov-20 12:55 33.940070 -118.402303 39 113ft 0kts
22-Nov-20 12:56 33.940070 -118.402303 39 113ft 0kts
22-Nov-20 12:57 33.940070 -118.402303 39 113ft 0kts
22-Nov-20 12:58 33.940070 -118.402303 39 113ft 0kts
22-Nov-20 12:59 33.940070 -118.402303 39 113ft 0kts
22-Nov-20 13:00 33.940070 -118.402303 39 113ft 0kts
22-Nov-20 13:01 33.940070 -118.402303 39 113ft 0kts
22-Nov-20 13:02 33.940070 -118.402303 39 113ft 0kts
22-Nov-20 13:03 33.940070 -118.402304 39 113ft 0kts
22-Nov-20 13:04 33.940070 -118.402304 39 113ft 0kts
22-Nov-20 13:05 33.940061 -118.402313 40 114ft 1kts
22-Nov-20 13:06 33.939659 -118.402552 356 113ft 2kts
22-Nov-20 13:08 33.939309 -118.402799 85 113ft 1kts
22-Nov-20 13:09 33.939307 -118.402827 83 113ft 0kts
22-Nov-20 13:10 33.939307 -118.402827 83 113ft 0kts
22-Nov-20 13:11 33.939767 -118.398393 82 113ft 20kts
22-Nov-20 13:12 33.940548 -118.390350 89 113ft 23kts
22-Nov-20 13:13 33.940687 -118.382915 108 113ft 19kts
22-Nov-20 13:14 33.940786 -118.380247 125 113ft 0kts
22-Nov-20 13:15 33.939898 -118.380409 256 114ft 15kts
22-Nov-20 13:16 33.936030 -118.417675 262 1722ft 140kts
22-Nov-20 13:17 33.929734 -118.479568 265 3321ft 249kts
22-Nov-20 13:18 33.922899 -118.563011 266 5347ft 256kts
22-Nov-20 13:19 33.937703 -118.640792 322 7842ft 262kts
22-Nov-20 13:20 34.004661 -118.675873 352 7852ft 273kts
22-Nov-20 13:21 34.082510 -118.669830 2 9795ft 285kts
22-Nov-20 13:22 34.161214 -118.651386 0 13259ft 294kts
22-Nov-20 13:22 34.229204 -118.635681 354 14832ft 296kts
22-Nov-20 13:24 34.322387 -118.649746 337 16655ft 298kts
22-Nov-20 13:24 34.390867 -118.665420 336 19026ft 303kts
22-Nov-20 13:26 34.488369 -118.685735 338 22173ft 306kts
22-Nov-20 13:27 34.572608 -118.702126 338 24498ft 308kts
22-Nov-20 13:27 34.644253 -118.716206 338 25998ft 317kts
22-Nov-20 13:29 34.744676 -118.749187 324 27459ft 324kts
22-Nov-20 13:29 34.813149 -118.795467 323 27989ft 349kts
22-Nov-20 13:31 34.915184 -118.865371 324 29318ft 365kts
22-Nov-20 13:31 34.988870 -118.916045 324 30701ft 362kts
22-Nov-20 13:32 35.076734 -118.976692 324 32027ft 363kts
22-Nov-20 13:33 35.165070 -119.037600 324 33317ft 363kts
22-Nov-20 13:34 35.253152 -119.098654 324 34504ft 362kts
22-Nov-20 13:35 35.340953 -119.159818 324 35489ft 363kts
22-Nov-20 13:36 35.430787 -119.218395 329 35821ft 368kts
22-Nov-20 13:37 35.529407 -119.258374 337 35824ft 375kts
22-Nov-20 13:38 35.630694 -119.288841 338 35824ft 373kts
22-Nov-20 13:39 35.731622 -119.319141 338 35824ft 373kts
22-Nov-20 13:40 35.832610 -119.349498 338 35824ft 372kts
22-Nov-20 13:41 35.933222 -119.379840 338 35826ft 371kts
22-Nov-20 13:42 36.033268 -119.410144 339 35831ft 373kts
22-Nov-20 13:43 36.133674 -119.440443 339 35834ft 373kts
22-Nov-20 13:44 36.234609 -119.470912 339 35832ft 372kts
22-Nov-20 13:45 36.335425 -119.501578 339 35832ft 373kts
22-Nov-20 13:46 36.436508 -119.532448 339 35832ft 374kts
22-Nov-20 13:47 36.537762 -119.563449 339 35832ft 375kts
22-Nov-20 13:48 36.639576 -119.594704 339 35828ft 377kts
22-Nov-20 13:49 36.741758 -119.626172 340 35825ft 377kts
22-Nov-20 13:50 36.844455 -119.657971 339 35825ft 381kts
22-Nov-20 13:51 36.947301 -119.690160 340 35825ft 383kts
22-Nov-20 13:52 37.051141 -119.722449 340 35825ft 384kts
22-Nov-20 13:53 37.153420 -119.754188 341 35823ft 385kts
22-Nov-20 13:54 37.250756 -119.784450 341 35802ft 386kts
22-Nov-20 13:55 37.342467 -119.813158 341 35773ft 387kts
22-Nov-20 13:56 37.439228 -119.843521 341 35758ft 388kts
22-Nov-20 13:57 37.537658 -119.874506 341 35753ft 388kts
22-Nov-20 13:58 37.635106 -119.905253 342 35751ft 388kts
22-Nov-20 13:59 37.730138 -119.935308 342 35751ft 388kts
22-Nov-20 14:00 37.824126 -119.965103 342 35751ft 388kts
22-Nov-20 14:01 37.919860 -119.995550 342 35751ft 387kts
22-Nov-20 14:02 38.021323 -120.027908 342 35752ft 387kts
22-Nov-20 14:03 38.128445 -120.062151 342 35760ft 387kts
22-Nov-20 14:04 38.245215 -120.099408 343 35852ft 388kts
22-Nov-20 14:05 38.350276 -120.130194 343 35840ft 386kts
22-Nov-20 14:06 38.447533 -120.158908 343 35790ft 386kts
22-Nov-20 14:07 38.552355 -120.190026 343 35918ft 385kts
22-Nov-20 14:08 38.656403 -120.221032 344 35962ft 384kts
22-Nov-20 14:09 38.761067 -120.252306 344 35971ft 384kts
22-Nov-20 14:10 38.865087 -120.283490 344 35972ft 383kts
22-Nov-20 14:11 38.968861 -120.314692 344 35971ft 383kts
22-Nov-20 14:12 39.073079 -120.346129 345 35972ft 384kts
22-Nov-20 14:13 39.176943 -120.377415 345 35972ft 385kts
22-Nov-20 14:14 39.281355 -120.409020 345 35972ft 386kts
22-Nov-20 14:15 39.386298 -120.440947 345 35971ft 387kts
22-Nov-20 14:16 39.491588 -120.473087 345 35972ft 388kts
22-Nov-20 14:17 39.597058 -120.505383 345 35972ft 389kts
22-Nov-20 14:18 39.702942 -120.537898 346 35972ft 389kts
22-Nov-20 14:19 39.808545 -120.570441 346 35972ft 389kts
22-Nov-20 14:20 39.914364 -120.603144 346 35850ft 389kts
22-Nov-20 14:21 40.019818 -120.635887 346 35791ft 391kts
22-Nov-20 14:22 40.125747 -120.669064 346 35789ft 391kts
22-Nov-20 14:23 40.231749 -120.702251 346 35791ft 390kts
22-Nov-20 14:24 40.337177 -120.735275 346 35811ft 389kts
22-Nov-20 14:25 40.442660 -120.768398 346 35823ft 388kts
22-Nov-20 14:26 40.547789 -120.801525 346 35824ft 387kts
22-Nov-20 14:27 40.652318 -120.834572 346 35824ft 386kts
22-Nov-20 14:28 40.757276 -120.867859 346 35824ft 386kts
22-Nov-20 14:29 40.862158 -120.901229 346 35824ft 385kts
22-Nov-20 14:30 40.966317 -120.934470 347 35824ft 385kts
22-Nov-20 14:31 41.070865 -120.967945 347 35824ft 385kts
22-Nov-20 14:32 41.174298 -121.001078 347 35826ft 385kts
22-Nov-20 14:33 41.279104 -121.034784 347 35830ft 385kts
22-Nov-20 14:34 41.383552 -121.068559 347 35834ft 384kts
22-Nov-20 14:35 41.487814 -121.102380 347 35837ft 384kts
22-Nov-20 14:36 41.591784 -121.136221 347 35840ft 383kts
22-Nov-20 14:37 41.695285 -121.170037 347 35846ft 382kts
22-Nov-20 14:38 41.798920 -121.203983 347 35854ft 382kts
22-Nov-20 14:39 41.902779 -121.238133 347 35854ft 381kts
22-Nov-20 14:40 42.005941 -121.272163 347 35854ft 380kts
22-Nov-20 14:41 42.109111 -121.306342 348 35865ft 380kts
22-Nov-20 14:42 42.212027 -121.340349 348 35859ft 380kts
22-Nov-20 14:43 42.314691 -121.374526 348 35863ft 379kts
22-Nov-20 14:44 42.417771 -121.408995 348 35861ft 379kts
22-Nov-20 14:45 42.520878 -121.443584 348 35862ft 380kts
22-Nov-20 14:46 42.624054 -121.478309 348 35868ft 380kts
22-Nov-20 14:47 42.727376 -121.513219 348 35897ft 380kts
22-Nov-20 14:48 42.830305 -121.548088 348 35915ft 380kts
22-Nov-20 14:49 42.933484 -121.583199 348 35916ft 380kts
22-Nov-20 14:50 43.034565 -121.617686 349 35915ft 379kts
22-Nov-20 14:51 43.135912 -121.652348 348 35927ft 379kts
22-Nov-20 14:52 43.236170 -121.687122 348 35952ft 378kts
22-Nov-20 14:53 43.338460 -121.722488 348 35968ft 377kts
22-Nov-20 14:54 43.439826 -121.757566 348 35972ft 376kts
22-Nov-20 14:55 43.541499 -121.792863 349 35972ft 375kts
22-Nov-20 14:56 43.642982 -121.828227 349 35972ft 374kts
22-Nov-20 14:57 43.744047 -121.863550 349 35974ft 373kts
22-Nov-20 14:58 43.844908 -121.898922 349 35982ft 373kts
22-Nov-20 14:59 43.945461 -121.934319 349 35990ft 372kts
22-Nov-20 15:00 44.046038 -121.969846 349 35998ft 372kts
22-Nov-20 15:01 44.145781 -122.005150 349 36009ft 372kts
22-Nov-20 15:02 44.245947 -122.040710 349 36019ft 371kts
22-Nov-20 15:03 44.346241 -122.076503 349 36031ft 370kts
22-Nov-20 15:04 44.446469 -122.112410 349 36052ft 369kts
22-Nov-20 15:05 44.544891 -122.147798 349 36073ft 367kts
22-Nov-20 15:06 44.643886 -122.183504 349 36082ft 365kts
22-Nov-20 15:07 44.742113 -122.219063 349 36085ft 363kts
22-Nov-20 15:08 44.837046 -122.252791 340 36034ft 380kts
22-Nov-20 15:10 44.943143 -122.292256 339 36028ft 408kts
22-Nov-20 15:11 45.056910 -122.334096 339 36033ft 435kts
22-Nov-20 15:12 45.173972 -122.376882 339 36042ft 436kts
22-Nov-20 15:13 45.291316 -122.420093 339 36046ft 436kts
22-Nov-20 15:14 45.408634 -122.463627 339 36046ft 436kts
22-Nov-20 15:15 45.527005 -122.507791 339 34390ft 450kts
22-Nov-20 15:16 45.651414 -122.554493 340 30982ft 465kts
22-Nov-20 15:17 45.773562 -122.597113 345 29612ft 445kts
22-Nov-20 15:18 45.894791 -122.626847 345 28196ft 435kts
22-Nov-20 15:19 46.011787 -122.655966 344 26508ft 421kts
22-Nov-20 15:20 46.124523 -122.682950 346 24806ft 408kts
22-Nov-20 15:21 46.235562 -122.704632 346 23130ft 393kts
22-Nov-20 15:22 46.343454 -122.722496 352 21452ft 385kts
22-Nov-20 15:23 46.449995 -122.726369 353 19994ft 378kts
22-Nov-20 15:24 46.554499 -122.729936 354 18220ft 371kts
22-Nov-20 15:24 46.639849 -122.732960 354 16877ft 361kts
22-Nov-20 15:26 46.755442 -122.737150 354 15014ft 349kts
22-Nov-20 15:27 46.839913 -122.673815 39 13430ft 351kts
22-Nov-20 15:28 46.915781 -122.585918 36 11995ft 337kts
22-Nov-20 15:29 46.993805 -122.536036 12 11989ft 321kts
22-Nov-20 15:29 47.060903 -122.507460 12 11968ft 324kts
22-Nov-20 15:31 47.160913 -122.484666 3 10436ft 311kts
22-Nov-20 15:31 47.231660 -122.472980 3 9366ft 300kts
22-Nov-20 15:33 47.324569 -122.458887 3 7977ft 274kts
22-Nov-20 15:33 47.388415 -122.454434 357 7397ft 272kts
22-Nov-20 15:34 47.463982 -122.454695 357 6273ft 268kts
22-Nov-20 15:35 47.533883 -122.454880 357 5421ft 243kts
22-Nov-20 15:36 47.600942 -122.455546 358 4440ft 237kts
22-Nov-20 15:37 47.666740 -122.456214 359 3461ft 232kts
22-Nov-20 15:38 47.729668 -122.456846 0 2976ft 206kts
22-Nov-20 15:39 47.768390 -122.417890 104 2996ft 189kts
22-Nov-20 15:40 47.744044 -122.354719 155 3002ft 184kts
22-Nov-20 15:41 47.700084 -122.327195 158 3010ft 173kts
22-Nov-20 15:42 47.654242 -122.307764 182 2947ft 173kts
22-Nov-20 15:43 47.605959 -122.309873 179 2999ft 173kts
22-Nov-20 15:44 47.558868 -122.310319 179 2284ft 164kts
22-Nov-20 15:45 47.518688 -122.310759 178 1459ft 124kts
22-Nov-20 15:46 47.483675 -122.310787 178 882ft 124kts
22-Nov-20 15:47 47.453653 -122.311088 182 442ft 23kts
22-Nov-20 15:48 47.446293 -122.309040 142 442ft 14kts
22-Nov-20 15:49 47.447912 -122.304112 44 442ft 6kts
22-Nov-20 15:50 47.448347 -122.303580 40 442ft 2kts
22-Nov-20 15:51 47.448366 -122.303557 40 442ft 0kts
22-Nov-20 15:52 47.448366 -122.303557 40 442ft 0kts

Navigation Log

Ident Type
Flight plan parsing failed, navigation log unavailable